Terminal Aerodrome Forecast
Issued by NWS Atlanta, GA

Home | Current Version | Previous Version | Text Only | Print | Product List | Glossary On
Versions: 1 2 3 4 5 6 7 8 9 10 11 12 13 14 15 16 17 18 19 20 21 22 23 24 25 26 27 28 29 30 31
000
FTUS42 KFFC 180539
TAFAHN
TAF
KAHN 180539Z 1806/1906 00000KT P6SM FEW250
     FM180900 10003KT P6SM SCT090
      TEMPO 1812/1814 5SM BR BKN015
     FM181400 17008KT P6SM BKN050
     FM181800 21008G15KT P6SM BKN050
     FM190000 24012G20KT P6SM VCSH BKN035 PROB30 1903/1906
      29015G25KT SHRA OVC025=

USA.gov is the U.S. government's official web portal to all federal, state and local government web resources and services.